createdAt,value
2023-01-28T00:03:43.875Z,8.68
2023-01-28T00:08:45.409Z,8.67
2023-01-28T00:13:46.916Z,8.67
2023-01-28T00:18:48.530Z,8.73
2023-01-28T00:23:56.784Z,8.67
2023-01-28T00:28:58.275Z,8.61
2023-01-28T00:33:59.730Z,8.29
2023-01-28T00:39:01.350Z,8.27
2023-01-28T00:44:02.833Z,8.30
2023-01-28T00:49:04.310Z,7.50
2023-01-28T00:54:05.918Z,7.42
2023-01-28T00:59:07.397Z,7.58
2023-01-28T01:04:08.857Z,7.69
2023-01-28T01:09:10.859Z,7.74
2023-01-28T01:14:12.330Z,7.55
2023-01-28T01:19:14.139Z,7.49
2023-01-28T01:24:15.654Z,7.41
2023-01-28T01:29:17.117Z,7.69
2023-01-28T01:34:18.998Z,7.43
2023-01-28T01:39:20.457Z,7.54
2023-01-28T01:44:49.449Z,7.48
2023-01-28T01:49:50.916Z,7.59
2023-01-28T01:54:53.682Z,7.48
2023-01-28T01:59:55.184Z,7.54
2023-01-28T02:04:56.680Z,7.79
2023-01-28T02:09:58.140Z,7.85
2023-01-28T02:15:06.545Z,7.67
2023-01-28T02:20:27.533Z,7.65
2023-01-28T02:25:54.330Z,7.56
2023-01-28T02:31:15.726Z,8.12
2023-01-28T02:36:59.833Z,7.92
2023-01-28T02:42:25.375Z,8.09
2023-01-28T02:47:45.509Z,8.22
2023-01-28T02:53:31.405Z,8.22
2023-01-28T02:58:37.521Z,8.31
2023-01-28T03:04:03.329Z,8.25
2023-01-28T03:09:26.822Z,8.21
2023-01-28T03:14:46.555Z,8.16
2023-01-28T03:20:06.499Z,8.15
2023-01-28T03:25:26.770Z,7.99
2023-01-28T03:30:51.624Z,7.91
2023-01-28T03:36:11.494Z,7.69
2023-01-28T03:41:12.990Z,7.83
2023-01-28T03:46:14.535Z,7.98
2023-01-28T03:51:16.602Z,8.09
2023-01-28T03:56:19.477Z,8.09
2023-01-28T04:01:21.095Z,8.06
2023-01-28T04:06:22.577Z,8.05
2023-01-28T04:11:25.984Z,7.81
2023-01-28T04:16:27.477Z,8.12
2023-01-28T04:21:28.988Z,8.08
2023-01-28T04:26:30.451Z,8.01
2023-01-28T04:31:32.117Z,8.11
2023-01-28T04:36:33.607Z,8.23
2023-01-28T04:41:35.069Z,8.18
2023-01-28T04:46:36.559Z,8.33
2023-01-28T04:51:38.028Z,8.21
2023-01-28T04:56:39.494Z,8.14
2023-01-28T05:01:40.997Z,8.22
2023-01-28T05:06:42.474Z,8.30
2023-01-28T05:11:43.924Z,8.15
2023-01-28T05:16:45.379Z,8.09
2023-01-28T05:21:46.867Z,8.35
2023-01-28T05:26:48.321Z,8.21
2023-01-28T05:31:49.788Z,8.13
2023-01-28T05:36:51.251Z,8.42
2023-01-28T05:41:52.716Z,8.15
2023-01-28T05:46:54.170Z,8.37
2023-01-28T05:51:55.636Z,8.37
2023-01-28T05:56:57.084Z,8.39
2023-01-28T06:01:58.549Z,8.41
2023-01-28T06:07:00.023Z,8.27
2023-01-28T06:12:01.495Z,8.29
2023-01-28T06:17:02.951Z,8.36
2023-01-28T06:22:04.421Z,8.26
2023-01-28T06:27:05.891Z,8.15
2023-01-28T06:32:07.393Z,8.14
2023-01-28T06:37:08.920Z,8.02
2023-01-28T06:42:10.387Z,8.03
2023-01-28T06:47:11.852Z,8.32
2023-01-28T06:52:13.341Z,8.01
2023-01-28T06:57:14.811Z,8.13
2023-01-28T07:02:16.283Z,8.14
2023-01-28T07:07:17.748Z,8.35
2023-01-28T07:12:19.211Z,8.36
2023-01-28T07:17:20.773Z,8.57
2023-01-28T07:22:22.301Z,8.38
2023-01-28T07:27:23.770Z,8.34
2023-01-28T07:32:27.357Z,8.51
2023-01-28T07:37:28.833Z,8.15
2023-01-28T07:42:30.514Z,7.89
2023-01-28T07:47:32.102Z,8.24
2023-01-28T07:52:38.799Z,8.49
2023-01-28T07:57:48.522Z,8.68
2023-01-28T08:02:50.062Z,8.58
2023-01-28T08:07:51.530Z,8.63
2023-01-28T08:12:58.279Z,8.82
2023-01-28T08:17:59.904Z,8.86
2023-01-28T08:23:14.870Z,8.99
2023-01-28T08:28:16.470Z,9.32
2023-01-28T08:33:18.042Z,9.48
2023-01-28T08:38:20.337Z,9.63
2023-01-28T08:43:21.994Z,9.82
2023-01-28T08:48:23.449Z,9.22
2023-01-28T08:53:24.931Z,9.80
2023-01-28T08:58:26.446Z,9.89
2023-01-28T09:03:27.955Z,10.07
2023-01-28T09:08:29.485Z,10.02
2023-01-28T09:13:31.223Z,10.19
2023-01-28T09:18:32.704Z,10.18
2023-01-28T09:23:35.885Z,10.40
2023-01-28T09:28:38.395Z,9.48
2023-01-28T09:33:39.975Z,9.60
2023-01-28T09:38:41.448Z,9.66
2023-01-28T09:43:48.970Z,10.10
2023-01-28T09:48:51.344Z,10.45
2023-01-28T09:53:52.804Z,10.54
2023-01-28T09:58:54.328Z,10.53
2023-01-28T10:04:09.190Z,10.54
2023-01-28T10:09:28.304Z,10.34
2023-01-28T10:14:37.743Z,10.60
2023-01-28T10:19:51.271Z,10.01
2023-01-28T10:25:01.815Z,10.34
2023-01-28T10:30:22.478Z,10.31
2023-01-28T10:35:24.252Z,10.44
2023-01-28T10:40:26.220Z,10.68
2023-01-28T10:45:36.256Z,10.70
2023-01-28T10:50:37.744Z,10.63
2023-01-28T10:55:51.013Z,10.10
2023-01-28T11:00:54.312Z,10.56
2023-01-28T11:05:55.929Z,10.66
2023-01-28T11:10:57.595Z,10.37
2023-01-28T11:16:03.758Z,10.48
2023-01-28T11:21:14.630Z,10.40
2023-01-28T11:26:18.340Z,10.57
2023-01-28T11:31:20.599Z,10.64
2023-01-28T11:36:32.301Z,10.85
2023-01-28T11:41:35.384Z,10.31
2023-01-28T11:47:01.371Z,10.66
2023-01-28T11:52:16.688Z,10.10
2023-01-28T11:57:24.170Z,10.47
2023-01-28T12:02:48.862Z,11.05
2023-01-28T12:07:56.693Z,11.35
2023-01-28T12:13:20.534Z,11.39
2023-01-28T12:18:47.842Z,11.45
2023-01-28T12:24:00.229Z,10.97
2023-01-28T12:29:32.071Z,10.99
2023-01-28T12:34:48.327Z,11.00
2023-01-28T12:40:00.942Z,11.24
2023-01-28T12:45:13.317Z,11.44
2023-01-28T12:50:18.967Z,10.94
2023-01-28T12:55:37.941Z,11.11
2023-01-28T13:00:43.945Z,11.28
2023-01-28T13:05:52.556Z,11.16
2023-01-28T13:10:54.611Z,11.42
2023-01-28T13:15:56.096Z,11.75
2023-01-28T13:20:57.566Z,11.23
2023-01-28T13:26:22.478Z,10.97
2023-01-28T13:31:25.202Z,11.26
2023-01-28T13:36:32.650Z,11.23
2023-01-28T13:41:43.480Z,11.20
2023-01-28T13:46:44.945Z,11.00
2023-01-28T13:51:59.934Z,11.00
2023-01-28T13:57:01.313Z,10.97
2023-01-28T14:02:20.825Z,11.08
2023-01-28T14:07:40.986Z,11.16
2023-01-28T14:12:51.141Z,10.59
2023-01-28T14:17:53.777Z,11.12
2023-01-28T14:22:59.855Z,11.14
2023-01-28T14:28:01.333Z,10.88
2023-01-28T14:33:02.808Z,11.21
2023-01-28T14:38:07.969Z,11.30
2023-01-28T14:43:16.386Z,11.50
2023-01-28T14:48:32.257Z,11.60
2023-01-28T14:53:55.312Z,12.39
2023-01-28T14:59:09.666Z,12.78
2023-01-28T15:04:28.540Z,12.25
2023-01-28T15:09:30.024Z,12.46
2023-01-28T15:14:32.059Z,12.24
2023-01-28T15:19:35.269Z,12.29
2023-01-28T15:24:36.812Z,12.05
2023-01-28T15:29:38.357Z,11.90
2023-01-28T15:34:45.602Z,11.42
2023-01-28T15:39:47.176Z,10.94
2023-01-28T15:44:48.686Z,11.13
2023-01-28T15:49:59.787Z,11.16
2023-01-28T15:55:01.318Z,11.25
2023-01-28T16:00:13.261Z,11.03
2023-01-28T16:05:57.342Z,10.72
2023-01-28T16:10:58.808Z,10.81
2023-01-28T16:16:00.992Z,10.57
2023-01-28T16:21:02.472Z,10.61
2023-01-28T16:26:05.555Z,10.66
2023-01-28T16:31:09.537Z,10.76
2023-01-28T16:36:15.266Z,10.88
2023-01-28T16:41:25.902Z,10.95
2023-01-28T16:46:27.647Z,10.93
2023-01-28T16:51:29.180Z,10.98
2023-01-28T16:56:44.338Z,10.59
2023-01-28T17:01:47.165Z,10.92
2023-01-28T17:06:48.649Z,10.72
2023-01-28T17:11:50.134Z,10.90
2023-01-28T17:16:51.619Z,11.04
2023-01-28T17:21:53.102Z,11.18
2023-01-28T17:26:54.582Z,11.23
2023-01-28T17:31:56.117Z,11.42
2023-01-28T17:36:57.618Z,11.68
2023-01-28T17:41:59.106Z,11.52
2023-01-28T17:47:00.615Z,11.68
2023-01-28T17:52:02.098Z,11.22
2023-01-28T17:57:03.614Z,11.35
2023-01-28T18:02:06.782Z,11.13
2023-01-28T18:07:11.004Z,11.01
2023-01-28T18:12:14.145Z,11.03
2023-01-28T18:17:15.721Z,11.13
2023-01-28T18:22:17.218Z,10.75
2023-01-28T18:27:20.600Z,10.75
2023-01-28T18:32:22.088Z,10.90
2023-01-28T18:37:23.561Z,10.99
2023-01-28T18:42:25.035Z,10.85
2023-01-28T18:47:26.533Z,10.94
2023-01-28T18:52:29.036Z,10.90
2023-01-28T18:57:30.514Z,11.08
2023-01-28T19:02:32.068Z,10.64
2023-01-28T19:07:33.605Z,10.89
2023-01-28T19:12:35.181Z,11.00
2023-01-28T19:17:36.741Z,10.73
2023-01-28T19:22:38.856Z,10.90
2023-01-28T19:27:41.365Z,10.90
2023-01-28T19:32:42.831Z,11.06
2023-01-28T19:37:44.306Z,11.06
2023-01-28T19:42:46.060Z,11.12
2023-01-28T19:47:47.592Z,11.22
2023-01-28T19:52:49.083Z,11.24
2023-01-28T19:57:50.804Z,11.32
2023-01-28T20:02:52.399Z,11.24
2023-01-28T20:07:53.978Z,10.95
2023-01-28T20:12:55.447Z,11.20
2023-01-28T20:17:57.033Z,11.03
2023-01-28T20:22:58.523Z,11.26
2023-01-28T20:28:00.126Z,11.07
2023-01-28T20:33:01.609Z,10.99
2023-01-28T20:38:04.168Z,10.92
2023-01-28T20:43:06.106Z,10.75
2023-01-28T20:48:07.558Z,10.76
2023-01-28T20:53:09.094Z,10.86
2023-01-28T20:58:10.544Z,11.21
2023-01-28T21:03:12.010Z,10.91
2023-01-28T21:08:14.012Z,10.67
2023-01-28T21:13:15.629Z,10.61
2023-01-28T21:18:17.081Z,10.62
2023-01-28T21:23:18.543Z,10.82
2023-01-28T21:28:20.056Z,11.13
2023-01-28T21:33:21.528Z,11.11
2023-01-28T21:38:23.003Z,10.97
2023-01-28T21:43:24.491Z,11.00
2023-01-28T21:48:26.030Z,10.59
2023-01-28T21:53:27.499Z,10.92
2023-01-28T21:58:47.295Z,11.39
2023-01-28T22:03:48.953Z,11.10
2023-01-28T22:08:52.705Z,10.92
2023-01-28T22:13:54.172Z,10.12
2023-01-28T22:18:55.679Z,11.09
2023-01-28T22:23:57.273Z,11.03
2023-01-28T22:28:58.775Z,11.16
2023-01-28T22:34:00.289Z,10.46
2023-01-28T22:39:02.374Z,10.60
2023-01-28T22:44:04.365Z,11.01
2023-01-28T22:49:05.821Z,10.65
2023-01-28T22:54:07.297Z,10.87
2023-01-28T22:59:09.558Z,11.01
2023-01-28T23:04:11.177Z,11.10
2023-01-28T23:09:12.811Z,10.83
2023-01-28T23:14:32.676Z,10.83
2023-01-28T23:20:00.208Z,9.89
2023-01-28T23:25:01.689Z,10.52
2023-01-28T23:30:03.905Z,10.88
2023-01-28T23:35:06.793Z,10.64
2023-01-28T23:40:08.711Z,10.85
2023-01-28T23:45:10.917Z,11.19
2023-01-28T23:50:12.633Z,11.19
2023-01-28T23:55:15.846Z,11.40
